Time;durP1;ratioP1;P1;durP2;ratioP2;P2;SDS_P1;SDS_P2;PMS_P1;PMS_P2;Temp;Humidity;BMP_temperature;BMP_pressure;BME280_temperature;BME280_humidity;BME280_pressure;Samples;Min_cycle;Max_cycle;Signal;HPM_P1;HPM_P2
2023/11/10 00:02:20;;;;;;;;;;;15.70;90.50;;;;;;6096150;23;19967;-77
2023/11/10 00:04:48;;;;;;;;;;;15.70;90.60;;;;;;6096178;23;19909;-77
2023/11/10 00:07:14;;;;;;;;;;;15.80;90.80;;;;;;6095931;23;19932;-77
2023/11/10 00:09:39;;;;;;;;;;;15.90;90.70;;;;;;6096060;23;20314;-77
2023/11/10 00:12:05;;;;;;;;;;;15.80;90.80;;;;;;6096206;23;19902;-77
2023/11/10 00:14:30;;;;;;;;;;;15.90;90.00;;;;;;6096141;23;19925;-77
2023/11/10 00:16:56;;;;;;;;;;;15.80;90.80;;;;;;6096111;23;19905;-77
2023/11/10 00:19:21;;;;;;;;;;;15.80;90.70;;;;;;6096263;23;20261;-77
2023/11/10 00:21:50;;;;;;;;;;;15.80;90.70;;;;;;6098036;23;20234;-77
2023/11/10 00:24:18;;;;;;;;;;;15.80;90.60;;;;;;6098168;23;19905;-77
2023/11/10 00:26:44;;;;;;;;;;;15.80;86.60;;;;;;6097906;23;19945;-77
2023/11/10 00:29:09;;;;;;;;;;;15.80;90.50;;;;;;6098677;23;19909;-77
2023/11/10 00:31:35;;;;;;;;;;;15.90;90.80;;;;;;6098208;23;19901;-77
2023/11/10 00:34:01;;;;;;;;;;;15.80;90.70;;;;;;6098383;23;19929;-77
2023/11/10 00:36:26;;;;;;;;;;;15.80;90.80;;;;;;6097775;23;19909;-77
2023/11/10 00:38:52;;;;;;;;;;;16.10;90.80;;;;;;6097851;23;19905;-77
2023/11/10 00:41:19;;;;;;;;;;;15.70;90.40;;;;;;6097926;23;19939;-76
2023/11/10 00:43:44;;;;;;;;;;;15.60;90.50;;;;;;6072345;23;20329;-76
2023/11/10 00:46:10;;;;;;;;;;;15.80;90.70;;;;;;6097890;23;19901;-76
2023/11/10 00:48:35;;;;;;;;;;;15.80;90.60;;;;;;6097993;23;19956;-76
2023/11/10 00:51:01;;;;;;;;;;;15.90;90.40;;;;;;6097925;23;19901;-76
2023/11/10 00:53:26;;;;;;;;;;;15.80;90.50;;;;;;6097751;23;19960;-76
2023/11/10 00:55:53;;;;;;;;;;;15.80;90.60;;;;;;6097939;23;19905;-76
2023/11/10 00:58:19;;;;;;;;;;;15.90;90.50;;;;;;6098425;23;19901;-76
2023/11/10 01:00:45;;;;;;;;;;;15.80;90.50;;;;;;6098389;23;20233;-76
2023/11/10 01:03:11;;;;;;;;;;;15.80;90.40;;;;;;6097597;23;19915;-76
2023/11/10 01:05:36;;;;;;;;;;;15.90;90.70;;;;;;6097696;23;19905;-76
2023/11/10 01:08:02;;;;;;;;;;;16.20;90.70;;;;;;6097664;23;20378;-76
2023/11/10 01:10:27;;;;;;;;;;;15.70;90.50;;;;;;6097864;23;19929;-76
2023/11/10 01:12:53;;;;;;;;;;;15.90;90.70;;;;;;6097757;23;19929;-76
2023/11/10 01:15:20;;;;;;;;;;;15.90;90.80;;;;;;6097625;23;19902;-76
2023/11/10 01:17:47;;;;;;;;;;;15.80;90.60;;;;;;6097719;23;19901;-76
2023/11/10 01:20:13;;;;;;;;;;;15.90;90.50;;;;;;6097888;23;19907;-76
2023/11/10 01:22:40;;;;;;;;;;;16.00;91.10;;;;;;6098189;23;19976;-76
2023/11/10 01:25:10;;;;;;;;;;;15.90;90.70;;;;;;6098024;23;19901;-76
2023/11/10 01:27:36;;;;;;;;;;;15.80;86.40;;;;;;6098037;23;20237;-76
2023/11/10 01:30:02;;;;;;;;;;;16.00;90.80;;;;;;6098162;23;19908;-76
2023/11/10 01:32:28;;;;;;;;;;;15.30;90.30;;;;;;6097797;23;19921;-76
2023/11/10 01:34:54;;;;;;;;;;;15.80;90.80;;;;;;6097717;23;20025;-76
2023/11/10 01:37:20;;;;;;;;;;;15.80;90.80;;;;;;6097725;23;19908;-76
2023/11/10 01:39:46;;;;;;;;;;;15.80;90.70;;;;;;6098082;23;19943;-76
2023/11/10 01:42:13;;;;;;;;;;;15.90;90.80;;;;;;6098029;23;19901;-76
2023/11/10 01:44:38;;;;;;;;;;;16.10;90.70;;;;;;6097961;23;19909;-76
2023/11/10 01:47:06;;;;;;;;;;;15.90;90.50;;;;;;6097431;23;19918;-76
2023/11/10 01:49:33;;;;;;;;;;;15.80;90.80;;;;;;6097516;23;20296;-76
2023/11/10 01:51:59;;;;;;;;;;;15.90;90.90;;;;;;6097859;23;20213;-76
2023/11/10 01:54:27;;;;;;;;;;;15.90;90.80;;;;;;6098029;23;20339;-76
2023/11/10 01:56:53;;;;;;;;;;;15.80;90.70;;;;;;6097332;23;19908;-76
2023/11/10 01:59:19;;;;;;;;;;;15.90;90.70;;;;;;6071732;23;19901;-76
2023/11/10 02:01:45;;;;;;;;;;;15.70;90.30;;;;;;6097548;23;20261;-76
2023/11/10 02:04:11;;;;;;;;;;;16.00;90.90;;;;;;6097247;23;20385;-76
2023/11/10 02:06:40;;;;;;;;;;;15.90;90.80;;;;;;6097306;23;19919;-76
2023/11/10 02:09:06;;;;;;;;;;;15.90;90.80;;;;;;6097213;23;19909;-76
2023/11/10 02:11:32;;;;;;;;;;;15.80;90.50;;;;;;6097018;23;19901;-76
2023/11/10 02:13:58;;;;;;;;;;;15.80;90.60;;;;;;6096973;23;19905;-76
2023/11/10 02:16:24;;;;;;;;;;;15.80;90.90;;;;;;6097167;23;19980;-77
2023/11/10 02:18:50;;;;;;;;;;;15.80;90.80;;;;;;6097032;23;19901;-77
2023/11/10 02:21:15;;;;;;;;;;;15.70;90.90;;;;;;6096996;23;20230;-76
2023/11/10 02:23:41;;;;;;;;;;;15.80;91.00;;;;;;6097599;23;19902;-76
2023/11/10 02:26:07;;;;;;;;;;;15.70;91.10;;;;;;6096873;23;20276;-76
2023/11/10 02:28:33;;;;;;;;;;;15.70;91.00;;;;;;6096779;23;19938;-76
2023/11/10 02:30:58;;;;;;;;;;;15.70;91.10;;;;;;6097446;23;19905;-76
2023/11/10 02:33:24;;;;;;;;;;;15.80;91.20;;;;;;6097102;23;19996;-76
2023/11/10 02:35:50;;;;;;;;;;;15.80;91.00;;;;;;6097424;23;19940;-74
2023/11/10 02:38:16;;;;;;;;;;;15.70;91.10;;;;;;6096753;23;19923;-75
2023/11/10 02:40:41;;;;;;;;;;;15.70;91.10;;;;;;6096779;23;19957;-75
2023/11/10 02:43:07;;;;;;;;;;;15.80;91.20;;;;;;6096476;23;19905;-75
2023/11/10 02:45:33;;;;;;;;;;;15.70;91.10;;;;;;6096535;23;19933;-74
2023/11/10 02:47:58;;;;;;;;;;;15.80;91.20;;;;;;6096743;23;19917;-74
2023/11/10 02:50:24;;;;;;;;;;;15.80;91.10;;;;;;6097321;23;19901;-75
2023/11/10 02:52:49;;;;;;;;;;;16.00;91.10;;;;;;6097204;23;19901;-75
2023/11/10 02:55:15;;;;;;;;;;;15.80;91.20;;;;;;6096503;23;19985;-74
2023/11/10 02:57:40;;;;;;;;;;;15.70;91.00;;;;;;6096460;23;19925;-74
2023/11/10 03:00:06;;;;;;;;;;;15.80;91.10;;;;;;6096505;23;20237;-74
2023/11/10 03:02:31;;;;;;;;;;;15.70;90.70;;;;;;6096841;23;19967;-74
2023/11/10 03:04:57;;;;;;;;;;;15.90;91.10;;;;;;6096496;23;19909;-74
2023/11/10 03:07:23;;;;;;;;;;;15.70;91.00;;;;;;6096324;23;19909;-74
2023/11/10 03:09:48;;;;;;;;;;;15.70;91.00;;;;;;6096470;23;19907;-74
2023/11/10 03:12:14;;;;;;;;;;;15.70;90.90;;;;;;6096367;23;19901;-74
2023/11/10 03:14:49;;;;;;;;;;;15.70;86.80;;;;;;5090112;27;19928;-75
2023/11/10 03:17:14;;;;;;;;;;;15.90;91.20;;;;;;5090122;28;19913;-75
2023/11/10 03:19:40;;;;;;;;;;;15.80;91.00;;;;;;5090456;28;19915;-75
2023/11/10 03:22:06;;;;;;;;;;;15.70;91.10;;;;;;5089840;28;20405;-75
2023/11/10 03:24:31;;;;;;;;;;;15.40;90.70;;;;;;5090026;28;19909;-75
2023/11/10 03:26:57;;;;;;;;;;;15.70;91.10;;;;;;5089813;28;19908;-75
2023/11/10 03:29:22;;;;;;;;;;;15.80;91.00;;;;;;5089695;28;20371;-75
2023/11/10 03:31:48;;;;;;;;;;;15.70;90.90;;;;;;5089772;28;19912;-75
2023/11/10 03:34:15;;;;;;;;;;;15.80;91.00;;;;;;5089923;28;19923;-75
2023/11/10 03:36:40;;;;;;;;;;;15.60;90.70;;;;;;5089889;28;19908;-74
2023/11/10 03:39:06;;;;;;;;;;;15.70;91.00;;;;;;5089935;28;19908;-75
2023/11/10 03:41:32;;;;;;;;;;;15.70;91.10;;;;;;5089780;28;20308;-75
2023/11/10 03:43:58;;;;;;;;;;;15.80;91.10;;;;;;5089491;28;19948;-75
2023/11/10 03:46:24;;;;;;;;;;;15.70;90.80;;;;;;5089542;28;20058;-75
2023/11/10 03:48:50;;;;;;;;;;;15.70;91.10;;;;;;5089933;28;19909;-75
2023/11/10 03:51:16;;;;;;;;;;;15.90;91.00;;;;;;5089720;28;19923;-75
2023/11/10 03:53:41;;;;;;;;;;;15.70;91.00;;;;;;5089243;28;19916;-75
2023/11/10 03:56:07;;;;;;;;;;;15.70;91.00;;;;;;5089530;28;20359;-75
2023/11/10 03:58:34;;;;;;;;;;;15.70;91.10;;;;;;5089190;28;19915;-75
2023/11/10 04:01:00;;;;;;;;;;;15.70;90.80;;;;;;5089236;28;19940;-75
2023/11/10 04:03:26;;;;;;;;;;;15.70;90.70;;;;;;5089438;28;19915;-75
2023/11/10 04:05:52;;;;;;;;;;;15.70;91.10;;;;;;5089043;28;20359;-75
2023/11/10 04:08:18;;;;;;;;;;;15.60;90.90;;;;;;5089099;28;20010;-75
2023/11/10 04:10:45;;;;;;;;;;;15.60;91.00;;;;;;5089251;28;19955;-75
2023/11/10 04:13:10;;;;;;;;;;;15.60;91.00;;;;;;5096024;28;19920;-75
2023/11/10 04:15:36;;;;;;;;;;;15.60;90.80;;;;;;5109607;28;20286;-75
2023/11/10 04:18:02;;;;;;;;;;;15.70;91.20;;;;;;5109914;28;20358;-75
2023/11/10 04:20:27;;;;;;;;;;;15.60;90.80;;;;;;5109322;28;19915;-75
2023/11/10 04:22:53;;;;;;;;;;;15.70;90.90;;;;;;5109152;28;19916;-75
2023/11/10 04:25:18;;;;;;;;;;;15.60;90.80;;;;;;5100292;28;19912;-75
2023/11/10 04:27:44;;;;;;;;;;;15.60;91.00;;;;;;5095660;28;19931;-75
2023/11/10 04:30:10;;;;;;;;;;;15.70;91.00;;;;;;5095844;28;19908;-75
2023/11/10 04:32:38;;;;;;;;;;;15.80;90.10;;;;;;5095312;28;20007;-75
2023/11/10 04:35:04;;;;;;;;;;;15.60;88.20;;;;;;5095310;28;19958;-75
2023/11/10 04:37:30;;;;;;;;;;;15.50;90.70;;;;;;5095635;28;19908;-75
2023/11/10 04:39:55;;;;;;;;;;;15.60;90.60;;;;;;5095229;28;19909;-75
2023/11/10 04:42:21;;;;;;;;;;;15.60;91.00;;;;;;5095198;28;19916;-75
2023/11/10 04:44:46;;;;;;;;;;;15.80;90.90;;;;;;5095680;28;19908;-75
2023/11/10 04:47:12;;;;;;;;;;;15.60;90.80;;;;;;5095151;28;19939;-75
2023/11/10 04:49:39;;;;;;;;;;;15.60;90.60;;;;;;5095140;28;20497;-75
2023/11/10 04:52:05;;;;;;;;;;;15.80;90.80;;;;;;5095057;28;19962;-75
2023/11/10 04:54:31;;;;;;;;;;;15.70;90.40;;;;;;5095067;28;19939;-75
2023/11/10 04:56:57;;;;;;;;;;;15.70;90.80;;;;;;5095194;28;19908;-75
2023/11/10 04:59:22;;;;;;;;;;;15.80;90.80;;;;;;5095037;28;20290;-75
2023/11/10 05:01:48;;;;;;;;;;;15.60;90.50;;;;;;5094783;28;19933;-75
2023/11/10 05:04:13;;;;;;;;;;;15.90;90.70;;;;;;5094921;28;19915;-75
2023/11/10 05:06:39;;;;;;;;;;;15.80;90.80;;;;;;5094801;28;19915;-75
2023/11/10 05:09:06;;;;;;;;;;;15.70;90.50;;;;;;5094815;28;20263;-75
2023/11/10 05:11:36;;;;;;;;;;;15.80;90.60;;;;;;5094696;28;19908;-75
2023/11/10 05:14:01;;;;;;;;;;;15.70;90.70;;;;;;5094847;28;20038;-75
2023/11/10 05:16:29;;;;;;;;;;;15.60;90.40;;;;;;5094653;28;20370;-75
2023/11/10 05:18:56;;;;;;;;;;;15.80;90.60;;;;;;5094572;28;19909;-75
2023/11/10 05:21:22;;;;;;;;;;;15.80;90.70;;;;;;5094439;28;19970;-75
2023/11/10 05:23:48;;;;;;;;;;;15.70;90.40;;;;;;5094474;28;20478;-75
2023/11/10 05:26:13;;;;;;;;;;;15.70;90.50;;;;;;5094516;28;19909;-75
2023/11/10 05:28:39;;;;;;;;;;;15.70;90.50;;;;;;5094303;28;19912;-75
2023/11/10 05:31:04;;;;;;;;;;;15.60;90.50;;;;;;5094248;28;19908;-75
2023/11/10 05:33:30;;;;;;;;;;;15.60;90.40;;;;;;5094172;28;20007;-75
2023/11/10 05:35:57;;;;;;;;;;;15.70;90.50;;;;;;5093599;28;19908;-75
2023/11/10 05:38:23;;;;;;;;;;;15.70;90.60;;;;;;5093832;28;19908;-76
2023/11/10 05:40:48;;;;;;;;;;;15.70;90.50;;;;;;5094135;28;19998;-75
2023/11/10 05:43:14;;;;;;;;;;;15.70;90.70;;;;;;5094600;28;19908;-75
2023/11/10 05:45:40;;;;;;;;;;;15.70;90.70;;;;;;5094018;28;19915;-75
2023/11/10 05:48:05;;;;;;;;;;;15.70;90.60;;;;;;5093984;28;20442;-75
2023/11/10 05:50:31;;;;;;;;;;;15.70;90.80;;;;;;5093895;28;19908;-75
2023/11/10 05:52:57;;;;;;;;;;;15.70;90.70;;;;;;5093964;28;19922;-74
2023/11/10 05:55:23;;;;;;;;;;;15.60;90.50;;;;;;5093855;28;20363;-75
2023/11/10 05:57:48;;;;;;;;;;;15.70;90.60;;;;;;5093799;28;19920;-75
2023/11/10 06:00:14;;;;;;;;;;;15.70;90.70;;;;;;5093663;28;19961;-75
2023/11/10 06:02:41;;;;;;;;;;;17.00;90.70;;;;;;5093697;28;19908;-75
2023/11/10 06:05:06;;;;;;;;;;;15.60;90.50;;;;;;5093590;28;20042;-75
2023/11/10 06:07:32;;;;;;;;;;;15.70;90.20;;;;;;5093572;28;20015;-75
2023/11/10 06:09:57;;;;;;;;;;;15.70;90.60;;;;;;5093575;28;19916;-75
2023/11/10 06:12:23;;;;;;;;;;;15.70;90.60;;;;;;5093852;28;19969;-77
2023/11/10 06:14:49;;;;;;;;;;;15.60;90.80;;;;;;5093694;28;19989;-77
2023/11/10 06:17:18;;;;;;;;;;;15.70;90.70;;;;;;5093538;28;20386;-77
2023/11/10 06:19:43;;;;;;;;;;;15.70;90.70;;;;;;5093689;28;19915;-77
2023/11/10 06:22:11;;;;;;;;;;;15.70;90.60;;;;;;5093426;28;19999;-78
2023/11/10 06:24:37;;;;;;;;;;;15.70;90.70;;;;;;5093439;28;20008;-76
2023/11/10 06:27:02;;;;;;;;;;;15.60;91.00;;;;;;5093615;28;19995;-76
2023/11/10 06:29:28;;;;;;;;;;;15.60;90.50;;;;;;5093569;28;19947;-78
2023/11/10 06:31:54;;;;;;;;;;;15.60;90.70;;;;;;5093618;28;19908;-79
2023/11/10 06:34:22;;;;;;;;;;;15.70;90.80;;;;;;5093334;28;20385;-76
2023/11/10 06:36:50;;;;;;;;;;;15.80;90.70;;;;;;5098769;28;19912;-79
2023/11/10 06:39:19;;;;;;;;;;;15.60;90.70;;;;;;5094221;28;19923;-72
2023/11/10 06:41:45;;;;;;;;;;;15.70;86.80;;;;;;5093378;28;19957;-79
2023/11/10 06:44:16;;;;;;;;;;;15.60;90.60;;;;;;5093315;28;19908;-79
2023/11/10 06:46:42;;;;;;;;;;;15.60;90.70;;;;;;5093314;28;19995;-77
2023/11/10 06:49:07;;;;;;;;;;;15.60;90.90;;;;;;5092719;28;20017;-80
2023/11/10 06:51:33;;;;;;;;;;;15.60;90.60;;;;;;5093196;28;19908;-81
2023/11/10 06:53:59;;;;;;;;;;;15.80;90.90;;;;;;5093065;28;19916;-78
2023/11/10 06:56:25;;;;;;;;;;;15.70;90.80;;;;;;5092982;28;19908;-77
2023/11/10 06:58:51;;;;;;;;;;;15.60;90.50;;;;;;5093099;28;19943;-76
2023/11/10 07:01:17;;;;;;;;;;;15.70;90.60;;;;;;5092753;28;19943;-76
2023/11/10 07:03:45;;;;;;;;;;;15.60;90.50;;;;;;5092733;28;19961;-76
2023/11/10 07:06:13;;;;;;;;;;;15.60;90.80;;;;;;5092682;28;19914;-76
2023/11/10 07:08:39;;;;;;;;;;;15.50;90.40;;;;;;5098363;28;20337;-79
2023/11/10 07:11:05;;;;;;;;;;;15.60;90.70;;;;;;5093522;28;19908;-79
2023/11/10 07:13:30;;;;;;;;;;;15.60;90.60;;;;;;5092168;28;19920;-80
2023/11/10 07:15:57;;;;;;;;;;;15.60;91.20;;;;;;5092629;28;19983;-78
2023/11/10 07:18:24;;;;;;;;;;;15.50;91.00;;;;;;5092864;28;20369;-86
2023/11/10 07:20:50;;;;;;;;;;;15.50;91.00;;;;;;5093277;28;19975;-86
2023/11/10 07:23:16;;;;;;;;;;;15.50;91.30;;;;;;5092997;28;19915;-79
2023/11/10 07:25:42;;;;;;;;;;;15.60;91.10;;;;;;5092422;28;20282;-79
2023/11/10 07:28:10;;;;;;;;;;;15.50;91.20;;;;;;5092506;28;19932;-83
2023/11/10 07:30:37;;;;;;;;;;;15.60;91.00;;;;;;5092648;28;19908;-76
2023/11/10 07:33:03;;;;;;;;;;;15.60;91.10;;;;;;5092274;28;19912;-75
2023/11/10 07:35:29;;;;;;;;;;;15.60;91.00;;;;;;5094316;28;19912;-76
2023/11/10 07:37:55;;;;;;;;;;;15.60;91.10;;;;;;5094694;28;19939;-77
2023/11/10 07:40:21;;;;;;;;;;;15.60;91.20;;;;;;5092395;28;19908;-76
2023/11/10 07:42:47;;;;;;;;;;;15.60;91.40;;;;;;5092592;28;19912;-74
2023/11/10 07:45:14;;;;;;;;;;;15.60;91.10;;;;;;5092688;28;19939;-75
2023/11/10 07:47:44;;;;;;;;;;;15.50;91.30;;;;;;5092689;28;19915;-75
2023/11/10 07:50:10;;;;;;;;;;;15.60;87.70;;;;;;5092774;28;19908;-76
2023/11/10 07:52:37;;;;;;;;;;;15.60;91.10;;;;;;5092600;28;19957;-76
2023/11/10 07:55:04;;;;;;;;;;;15.50;91.20;;;;;;5092378;28;19937;-76
2023/11/10 07:57:31;;;;;;;;;;;15.60;90.80;;;;;;5092546;28;19912;-77
2023/11/10 07:59:58;;;;;;;;;;;15.60;91.00;;;;;;5093754;28;19931;-77
2023/11/10 08:02:24;;;;;;;;;;;15.50;90.70;;;;;;5096379;28;19912;-77
2023/11/10 08:04:50;;;;;;;;;;;15.60;91.10;;;;;;5096608;28;19908;-75
2023/11/10 08:07:16;;;;;;;;;;;15.60;91.20;;;;;;5096045;28;19914;-75
2023/11/10 08:09:42;;;;;;;;;;;15.60;91.20;;;;;;5096208;28;19912;-76
2023/11/10 08:12:08;;;;;;;;;;;15.60;91.30;;;;;;5096137;28;19912;-74
2023/11/10 08:14:35;;;;;;;;;;;15.60;91.30;;;;;;5095704;28;19930;-74
2023/11/10 08:17:01;;;;;;;;;;;15.60;91.30;;;;;;5095915;28;19942;-77
2023/11/10 08:19:27;;;;;;;;;;;15.60;91.30;;;;;;5095982;28;19909;-75
2023/11/10 08:21:53;;;;;;;;;;;15.70;91.30;;;;;;5095885;28;19995;-76
2023/11/10 08:24:19;;;;;;;;;;;15.60;91.20;;;;;;5095589;28;20342;-76
2023/11/10 08:26:45;;;;;;;;;;;15.70;91.40;;;;;;5095623;28;20397;-76
2023/11/10 08:29:13;;;;;;;;;;;15.70;91.30;;;;;;5095845;28;19908;-77
2023/11/10 08:31:39;;;;;;;;;;;15.60;91.10;;;;;;5095560;28;19908;-76
2023/11/10 08:34:04;;;;;;;;;;;15.70;91.30;;;;;;5096028;28;19965;-76
2023/11/10 08:36:32;;;;;;;;;;;15.70;91.30;;;;;;5095474;28;20000;-76
2023/11/10 08:38:58;;;;;;;;;;;15.70;91.20;;;;;;5095319;28;19912;-76
2023/11/10 08:41:23;;;;;;;;;;;15.70;91.30;;;;;;5095325;28;20283;-77
2023/11/10 08:43:49;;;;;;;;;;;15.60;91.30;;;;;;5094016;28;20267;-76
2023/11/10 08:46:15;;;;;;;;;;;15.70;91.20;;;;;;5095302;28;19912;-76
2023/11/10 08:48:41;;;;;;;;;;;15.70;91.20;;;;;;5095227;28;19908;-76
2023/11/10 08:51:07;;;;;;;;;;;15.60;91.20;;;;;;5095405;28;19931;-76
2023/11/10 08:53:33;;;;;;;;;;;15.60;91.10;;;;;;5094993;28;19920;-77
2023/11/10 08:55:58;;;;;;;;;;;16.00;91.20;;;;;;5094989;28;19958;-76
2023/11/10 08:58:24;;;;;;;;;;;15.60;91.10;;;;;;5095004;28;19908;-76
2023/11/10 09:00:50;;;;;;;;;;;15.70;91.20;;;;;;5094897;28;19969;-76
2023/11/10 09:03:15;;;;;;;;;;;15.60;90.80;;;;;;5095282;28;19909;-76
2023/11/10 09:05:41;;;;;;;;;;;15.60;91.10;;;;;;5094817;28;19976;-76
2023/11/10 09:08:06;;;;;;;;;;;15.70;91.10;;;;;;5094651;28;19915;-76
2023/11/10 09:10:32;;;;;;;;;;;15.80;91.20;;;;;;5094548;28;20011;-76
2023/11/10 09:12:57;;;;;;;;;;;15.60;90.90;;;;;;5094399;28;19920;-76
2023/11/10 09:15:24;;;;;;;;;;;16.00;91.20;;;;;;5094796;28;19916;-76
2023/11/10 09:17:49;;;;;;;;;;;15.70;91.00;;;;;;5094539;28;19913;-76
2023/11/10 09:20:15;;;;;;;;;;;15.70;91.10;;;;;;5094895;28;20344;-76
2023/11/10 09:22:41;;;;;;;;;;;15.70;91.00;;;;;;5094509;28;20330;-76
2023/11/10 09:25:09;;;;;;;;;;;15.70;91.30;;;;;;5094439;28;19908;-76
2023/11/10 09:27:35;;;;;;;;;;;15.60;91.00;;;;;;5093078;28;20374;-76
2023/11/10 09:30:01;;;;;;;;;;;15.80;91.20;;;;;;5094920;28;19914;-76
2023/11/10 09:32:26;;;;;;;;;;;15.70;91.10;;;;;;5094378;28;20007;-76
2023/11/10 09:34:52;;;;;;;;;;;15.70;91.20;;;;;;5094202;28;19916;-77
2023/11/10 09:37:17;;;;;;;;;;;15.60;91.00;;;;;;5094155;28;19915;-76
2023/11/10 09:39:46;;;;;;;;;;;15.60;91.00;;;;;;5094161;28;19908;-77
2023/11/10 09:42:11;;;;;;;;;;;15.70;90.80;;;;;;5094151;28;19908;-75
2023/11/10 09:44:41;;;;;;;;;;;15.70;91.10;;;;;;5095935;28;19909;-75
2023/11/10 09:47:08;;;;;;;;;;;15.60;86.50;;;;;;5094613;28;20270;-75
2023/11/10 09:49:34;;;;;;;;;;;15.70;91.00;;;;;;5094219;28;19908;-75
2023/11/10 09:52:01;;;;;;;;;;;15.80;91.10;;;;;;5094009;28;19908;-71
2023/11/10 09:54:27;;;;;;;;;;;15.70;91.10;;;;;;5093909;28;20483;-71
2023/11/10 09:56:55;;;;;;;;;;;15.70;91.00;;;;;;5093987;28;20317;-72
2023/11/10 09:59:22;;;;;;;;;;;15.70;91.10;;;;;;5094173;28;20324;-71
2023/11/10 10:01:47;;;;;;;;;;;15.70;90.70;;;;;;5093941;28;19961;-72
2023/11/10 10:04:13;;;;;;;;;;;15.70;91.10;;;;;;5093706;28;19909;-75
2023/11/10 10:06:39;;;;;;;;;;;15.90;91.10;;;;;;5093782;28;19912;-76
2023/11/10 10:09:06;;;;;;;;;;;15.70;91.10;;;;;;5093669;28;19915;-77
2023/11/10 10:11:32;;;;;;;;;;;15.70;90.90;;;;;;5093568;28;19944;-77
2023/11/10 10:13:58;;;;;;;;;;;15.70;91.20;;;;;;5093386;28;19920;-77
2023/11/10 10:16:25;;;;;;;;;;;15.70;91.00;;;;;;5093488;28;19908;-77
2023/11/10 10:18:54;;;;;;;;;;;15.70;90.90;;;;;;5093902;28;19912;-77
2023/11/10 10:21:20;;;;;;;;;;;15.70;91.20;;;;;;5093447;28;20393;-77
2023/11/10 10:23:47;;;;;;;;;;;15.60;90.70;;;;;;5093190;28;19909;-77
2023/11/10 10:26:15;;;;;;;;;;;15.70;91.00;;;;;;5093245;28;19916;-77
2023/11/10 10:28:43;;;;;;;;;;;15.70;91.00;;;;;;5093312;28;19908;-77
2023/11/10 10:31:11;;;;;;;;;;;15.70;91.00;;;;;;5093428;28;19919;-77
2023/11/10 10:33:37;;;;;;;;;;;15.70;90.90;;;;;;5093064;28;19923;-77
2023/11/10 10:36:03;;;;;;;;;;;15.70;90.70;;;;;;5093755;28;19908;-77
2023/11/10 10:38:33;;;;;;;;;;;15.70;90.70;;;;;;5093393;28;19986;-77
2023/11/10 10:41:00;;;;;;;;;;;15.70;91.00;;;;;;5093327;28;19912;-77
2023/11/10 10:43:27;;;;;;;;;;;15.70;91.00;;;;;;5092972;28;19908;-77
2023/11/10 10:45:53;;;;;;;;;;;15.70;90.60;;;;;;5093379;28;20324;-77
2023/11/10 10:48:19;;;;;;;;;;;15.80;90.90;;;;;;5093322;28;19912;-77
2023/11/10 10:50:45;;;;;;;;;;;15.70;90.90;;;;;;5092868;28;19995;-77
2023/11/10 10:53:12;;;;;;;;;;;15.70;90.90;;;;;;5092785;28;20098;-77
2023/11/10 10:55:40;;;;;;;;;;;15.70;90.50;;;;;;5092897;28;20088;-77
2023/11/10 10:58:06;;;;;;;;;;;16.00;91.00;;;;;;5093122;28;19908;-77
2023/11/10 11:00:32;;;;;;;;;;;15.70;90.80;;;;;;5092696;28;19950;-77
2023/11/10 11:03:20;;;;;;;;;;;15.70;90.60;;;;;;5092875;28;19957;-77
2023/11/10 11:06:10;;;;;;;;;;;15.70;86.90;;;;;;5092977;28;19908;-76
2023/11/10 11:08:45;;;;;;;;;;;15.80;90.70;;;;;;5092873;28;19919;-77
2023/11/10 11:11:23;;;;;;;;;;;15.70;90.90;;;;;;5091509;28;20350;-78
2023/11/10 11:14:06;;;;;;;;;;;15.70;86.60;;;;;;5092654;28;19934;-76
2023/11/10 11:16:34;;;;;;;;;;;15.70;86.80;;;;;;5092699;28;19908;-76
2023/11/10 11:19:18;;;;;;;;;;;15.70;90.60;;;;;;5092775;28;19908;-80
2023/11/10 11:21:44;;;;;;;;;;;15.70;86.70;;;;;;5092721;28;19961;-75
2023/11/10 11:24:10;;;;;;;;;;;15.70;91.00;;;;;;5092867;28;19912;-77
2023/11/10 11:26:35;;;;;;;;;;;15.90;90.90;;;;;;5092753;28;19913;-76
2023/11/10 11:29:07;;;;;;;;;;;15.70;90.80;;;;;;5092811;28;19912;-75
2023/11/10 11:31:48;;;;;;;;;;;15.80;86.60;;;;;;5092625;28;19956;-75
2023/11/10 11:34:22;;;;;;;;;;;15.70;86.60;;;;;;5092770;28;19916;-73
2023/11/10 11:36:48;;;;;;;;;;;15.70;90.90;;;;;;5096884;28;20025;-75
2023/11/10 11:39:15;;;;;;;;;;;15.70;90.90;;;;;;5096657;28;19957;-77
2023/11/10 11:41:51;;;;;;;;;;;15.70;91.00;;;;;;5096686;28;19924;-76
2023/11/10 11:44:26;;;;;;;;;;;15.60;86.40;;;;;;5096920;28;20042;-76
2023/11/10 11:46:56;;;;;;;;;;;15.60;86.80;;;;;;5096562;28;19915;-74
2023/11/10 11:49:21;;;;;;;;;;;15.60;87.10;;;;;;5096603;28;19915;-71
2023/11/10 11:51:48;;;;;;;;;;;15.70;90.90;;;;;;5096278;28;19908;-73
2023/11/10 11:54:15;;;;;;;;;;;15.70;91.00;;;;;;5096014;28;20399;-72
2023/11/10 11:56:44;;;;;;;;;;;15.50;90.80;;;;;;5095987;28;19915;-73
2023/11/10 11:59:10;;;;;;;;;;;15.60;87.20;;;;;;5095968;28;20289;-72
2023/11/10 12:01:38;;;;;;;;;;;15.60;90.70;;;;;;5095838;28;19912;-72
2023/11/10 12:04:05;;;;;;;;;;;15.60;90.80;;;;;;5095876;28;19934;-72
2023/11/10 12:06:32;;;;;;;;;;;15.60;91.00;;;;;;5095845;28;19909;-72
2023/11/10 12:08:58;;;;;;;;;;;15.60;91.10;;;;;;5096120;28;19930;-72
2023/11/10 12:11:23;;;;;;;;;;;15.70;91.10;;;;;;5095978;28;20370;-72
2023/11/10 12:13:49;;;;;;;;;;;15.60;91.10;;;;;;5095410;28;19928;-72
2023/11/10 12:16:15;;;;;;;;;;;15.70;91.00;;;;;;5095514;28;19909;-72
2023/11/10 12:18:42;;;;;;;;;;;15.60;91.00;;;;;;5095563;28;19908;-72
2023/11/10 12:21:08;;;;;;;;;;;15.60;91.10;;;;;;5095599;28;20006;-72
2023/11/10 12:23:33;;;;;;;;;;;15.60;91.00;;;;;;5095465;28;19952;-72
2023/11/10 12:25:59;;;;;;;;;;;15.60;91.00;;;;;;5095651;28;19908;-72
2023/11/10 12:28:25;;;;;;;;;;;15.60;91.20;;;;;;5095277;28;19984;-72
2023/11/10 12:30:51;;;;;;;;;;;15.60;91.10;;;;;;5095578;28;19965;-72
2023/11/10 12:33:18;;;;;;;;;;;15.60;91.20;;;;;;5095144;28;20337;-73
2023/11/10 12:35:44;;;;;;;;;;;15.60;91.00;;;;;;5095231;28;19908;-71
2023/11/10 12:38:12;;;;;;;;;;;15.60;91.20;;;;;;5095162;28;19908;-72
2023/11/10 12:40:38;;;;;;;;;;;15.60;91.00;;;;;;5095106;28;19915;-72
2023/11/10 12:43:07;;;;;;;;;;;15.60;91.10;;;;;;5095477;28;19908;-71
2023/11/10 12:45:33;;;;;;;;;;;15.70;91.10;;;;;;5094502;28;20007;-71
2023/11/10 12:48:00;;;;;;;;;;;15.60;91.10;;;;;;5095305;28;19967;-72
2023/11/10 12:50:27;;;;;;;;;;;15.70;91.10;;;;;;5095420;28;19954;-72
2023/11/10 12:52:53;;;;;;;;;;;15.60;91.20;;;;;;5095162;28;19944;-72
2023/11/10 12:55:20;;;;;;;;;;;15.60;91.10;;;;;;5095158;28;20354;-72
2023/11/10 12:57:48;;;;;;;;;;;15.60;91.20;;;;;;5094967;28;19914;-72
2023/11/10 13:00:15;;;;;;;;;;;15.60;87.40;;;;;;5095314;28;19908;-72
2023/11/10 13:02:42;;;;;;;;;;;15.60;90.90;;;;;;5095197;28;19908;-72
2023/11/10 13:05:08;;;;;;;;;;;15.50;90.80;;;;;;5094974;28;20393;-72
2023/11/10 13:07:34;;;;;;;;;;;15.60;90.80;;;;;;5095122;28;19914;-72
2023/11/10 13:10:00;;;;;;;;;;;15.40;90.90;;;;;;5094514;28;19951;-72
2023/11/10 13:12:26;;;;;;;;;;;16.10;91.00;;;;;;5094322;28;19912;-72
2023/11/10 13:14:52;;;;;;;;;;;15.50;91.10;;;;;;5094640;28;19923;-72
2023/11/10 13:17:18;;;;;;;;;;;15.60;91.10;;;;;;5094713;28;19914;-72
2023/11/10 13:19:45;;;;;;;;;;;15.70;91.10;;;;;;5094784;28;19959;-72
2023/11/10 13:22:14;;;;;;;;;;;15.60;91.10;;;;;;5094595;28;20003;-72
2023/11/10 13:24:40;;;;;;;;;;;15.60;91.20;;;;;;5094945;28;19962;-73
2023/11/10 13:27:06;;;;;;;;;;;15.50;90.90;;;;;;5094893;28;20379;-72
2023/11/10 13:29:32;;;;;;;;;;;15.90;91.30;;;;;;5094759;28;19915;-71
2023/11/10 13:31:59;;;;;;;;;;;15.50;91.20;;;;;;5094317;28;19908;-71
2023/11/10 13:34:26;;;;;;;;;;;15.60;91.10;;;;;;5094519;28;20369;-72
2023/11/10 13:36:52;;;;;;;;;;;15.60;91.20;;;;;;5094537;28;19909;-71
2023/11/10 13:39:20;;;;;;;;;;;15.60;91.20;;;;;;5094479;28;19972;-71
2023/11/10 13:41:45;;;;;;;;;;;15.50;91.20;;;;;;5094501;28;19942;-71
2023/11/10 13:44:12;;;;;;;;;;;15.50;91.10;;;;;;5094484;28;19908;-72
2023/11/10 13:46:38;;;;;;;;;;;15.50;91.10;;;;;;5094373;28;20049;-72
2023/11/10 13:49:04;;;;;;;;;;;15.50;91.20;;;;;;5093013;28;19908;-72
2023/11/10 13:51:30;;;;;;;;;;;15.60;91.20;;;;;;5094308;28;20315;-72
2023/11/10 13:53:56;;;;;;;;;;;15.50;91.10;;;;;;5093535;28;20377;-72
2023/11/10 13:56:22;;;;;;;;;;;15.50;91.10;;;;;;5093949;28;19953;-73
2023/11/10 13:58:48;;;;;;;;;;;15.50;91.10;;;;;;5093028;28;19939;-72
2023/11/10 14:01:15;;;;;;;;;;;15.50;91.00;;;;;;5093897;28;19911;-72
2023/11/10 14:03:40;;;;;;;;;;;15.50;90.90;;;;;;5093546;28;19949;-73
2023/11/10 14:06:08;;;;;;;;;;;15.50;91.00;;;;;;5093500;28;20003;-73
2023/11/10 14:08:34;;;;;;;;;;;15.60;90.70;;;;;;5093516;28;20385;-69
2023/11/10 14:11:03;;;;;;;;;;;15.50;91.20;;;;;;5093727;28;20270;-72
2023/11/10 14:13:29;;;;;;;;;;;15.60;91.10;;;;;;5093259;28;19924;-72